sensor_id;sensor_type;location;lat;lon;timestamp;temperature;humidity
9425;DHT22;17139;52.140;11.636;2022-08-01T00:02:28;20.80;51.80
9425;DHT22;17139;52.140;11.636;2022-08-01T00:04:56;20.60;50.20
9425;DHT22;17139;52.140;11.636;2022-08-01T00:07:24;20.30;50.00
9425;DHT22;17139;52.140;11.636;2022-08-01T00:09:51;21.00;52.00
9425;DHT22;17139;52.140;11.636;2022-08-01T00:12:19;20.70;50.40
9425;DHT22;17139;52.140;11.636;2022-08-01T00:14:46;20.40;50.30
9425;DHT22;17139;52.140;11.636;2022-08-01T00:17:15;20.20;50.40
9425;DHT22;17139;52.140;11.636;2022-08-01T00:19:43;20.10;50.50
9425;DHT22;17139;52.140;11.636;2022-08-01T00:22:10;20.10;50.50
9425;DHT22;17139;52.140;11.636;2022-08-01T00:24:38;19.90;50.50
9425;DHT22;17139;52.140;11.636;2022-08-01T00:27:05;19.90;50.60
9425;DHT22;17139;52.140;11.636;2022-08-01T00:29:33;19.90;50.70
9425;DHT22;17139;52.140;11.636;2022-08-01T00:32:00;19.90;50.70
9425;DHT22;17139;52.140;11.636;2022-08-01T00:34:30;19.80;50.90
9425;DHT22;17139;52.140;11.636;2022-08-01T00:36:57;19.80;50.90
9425;DHT22;17139;52.140;11.636;2022-08-01T00:39:25;19.80;50.90
9425;DHT22;17139;52.140;11.636;2022-08-01T00:41:53;19.80;50.90
9425;DHT22;17139;52.140;11.636;2022-08-01T00:44:20;19.80;50.90
9425;DHT22;17139;52.140;11.636;2022-08-01T00:46:48;20.40;53.70
9425;DHT22;17139;52.140;11.636;2022-08-01T00:49:16;20.20;51.30
9425;DHT22;17139;52.140;11.636;2022-08-01T00:51:44;20.00;51.10
9425;DHT22;17139;52.140;11.636;2022-08-01T00:54:12;19.90;51.10
9425;DHT22;17139;52.140;11.636;2022-08-01T00:56:41;19.80;51.40
9425;DHT22;17139;52.140;11.636;2022-08-01T00:59:09;20.10;53.40
9425;DHT22;17139;52.140;11.636;2022-08-01T01:01:39;20.00;51.90
9425;DHT22;17139;52.140;11.636;2022-08-01T01:04:06;19.90;51.60
9425;DHT22;17139;52.140;11.636;2022-08-01T01:06:42;20.20;53.70
9425;DHT22;17139;52.140;11.636;2022-08-01T01:09:27;20.10;52.00
9425;DHT22;17139;52.140;11.636;2022-08-01T01:12:04;20.00;52.10
9425;DHT22;17139;52.140;11.636;2022-08-01T01:14:53;19.80;52.00
9425;DHT22;17139;52.140;11.636;2022-08-01T01:17:26;19.80;52.10
9425;DHT22;17139;52.140;11.636;2022-08-01T01:19:58;19.70;52.00
9425;DHT22;17139;52.140;11.636;2022-08-01T01:22:36;19.70;52.20
9425;DHT22;17139;52.140;11.636;2022-08-01T01:25:40;19.70;52.20
9425;DHT22;17139;52.140;11.636;2022-08-01T01:28:15;19.70;52.00
9425;DHT22;17139;52.140;11.636;2022-08-01T01:30:49;20.60;54.70
9425;DHT22;17139;52.140;11.636;2022-08-01T01:33:19;20.30;52.70
9425;DHT22;17139;52.140;11.636;2022-08-01T01:35:51;20.10;52.50
9425;DHT22;17139;52.140;11.636;2022-08-01T01:38:22;19.90;52.50
9425;DHT22;17139;52.140;11.636;2022-08-01T01:40:52;19.90;52.60
9425;DHT22;17139;52.140;11.636;2022-08-01T01:43:21;19.80;52.60
9425;DHT22;17139;52.140;11.636;2022-08-01T01:45:52;19.70;52.70
9425;DHT22;17139;52.140;11.636;2022-08-01T01:48:23;19.70;52.70
9425;DHT22;17139;52.140;11.636;2022-08-01T01:50:52;19.70;52.90
9425;DHT22;17139;52.140;11.636;2022-08-01T01:53:23;19.70;52.80
9425;DHT22;17139;52.140;11.636;2022-08-01T01:55:53;19.70;52.80
9425;DHT22;17139;52.140;11.636;2022-08-01T01:58:23;19.70;52.90
9425;DHT22;17139;52.140;11.636;2022-08-01T02:00:54;20.60;55.30
9425;DHT22;17139;52.140;11.636;2022-08-01T02:03:23;20.40;53.50
9425;DHT22;17139;52.140;11.636;2022-08-01T02:05:51;20.10;53.20
9425;DHT22;17139;52.140;11.636;2022-08-01T02:08:22;20.90;55.50
9425;DHT22;17139;52.140;11.636;2022-08-01T02:10:53;20.60;53.80
9425;DHT22;17139;52.140;11.636;2022-08-01T02:13:53;20.20;53.50
9425;DHT22;17139;52.140;11.636;2022-08-01T02:16:26;20.00;53.50
9425;DHT22;17139;52.140;11.636;2022-08-01T02:18:54;19.90;53.60
9425;DHT22;17139;52.140;11.636;2022-08-01T02:21:27;19.80;53.60
9425;DHT22;17139;52.140;11.636;2022-08-01T02:23:58;19.80;53.60
9425;DHT22;17139;52.140;11.636;2022-08-01T02:26:28;19.80;53.70
9425;DHT22;17139;52.140;11.636;2022-08-01T02:29:00;19.80;53.70
9425;DHT22;17139;52.140;11.636;2022-08-01T02:31:34;19.70;53.80
9425;DHT22;17139;52.140;11.636;2022-08-01T02:34:06;19.70;53.80
9425;DHT22;17139;52.140;11.636;2022-08-01T02:36:37;19.70;53.70
9425;DHT22;17139;52.140;11.636;2022-08-01T02:39:08;19.60;53.70
9425;DHT22;17139;52.140;11.636;2022-08-01T02:41:39;19.60;53.80
9425;DHT22;17139;52.140;11.636;2022-08-01T02:44:10;19.50;53.70
9425;DHT22;17139;52.140;11.636;2022-08-01T02:46:46;19.50;53.80
9425;DHT22;17139;52.140;11.636;2022-08-01T02:49:17;19.50;53.90
9425;DHT22;17139;52.140;11.636;2022-08-01T02:51:46;19.50;53.80
9425;DHT22;17139;52.140;11.636;2022-08-01T02:54:16;19.50;53.80
9425;DHT22;17139;52.140;11.636;2022-08-01T02:56:45;19.40;53.90
9425;DHT22;17139;52.140;11.636;2022-08-01T02:59:16;19.40;54.30
9425;DHT22;17139;52.140;11.636;2022-08-01T03:01:48;19.30;54.10
9425;DHT22;17139;52.140;11.636;2022-08-01T03:04:19;19.30;54.10
9425;DHT22;17139;52.140;11.636;2022-08-01T03:06:47;19.30;54.90
9425;DHT22;17139;52.140;11.636;2022-08-01T03:09:16;19.30;54.30
9425;DHT22;17139;52.140;11.636;2022-08-01T03:11:47;19.40;54.40
9425;DHT22;17139;52.140;11.636;2022-08-01T03:14:16;19.40;54.30
9425;DHT22;17139;52.140;11.636;2022-08-01T03:16:46;19.50;54.20
9425;DHT22;17139;52.140;11.636;2022-08-01T03:19:15;19.50;54.10
9425;DHT22;17139;52.140;11.636;2022-08-01T03:21:44;19.50;54.20
9425;DHT22;17139;52.140;11.636;2022-08-01T03:24:13;19.50;54.20
9425;DHT22;17139;52.140;11.636;2022-08-01T03:26:41;19.50;54.20
9425;DHT22;17139;52.140;11.636;2022-08-01T03:29:15;19.50;54.10
9425;DHT22;17139;52.140;11.636;2022-08-01T03:31:46;19.50;54.30
9425;DHT22;17139;52.140;11.636;2022-08-01T03:34:13;19.50;54.40
9425;DHT22;17139;52.140;11.636;2022-08-01T03:36:46;19.50;54.20
9425;DHT22;17139;52.140;11.636;2022-08-01T03:39:15;19.50;54.20
9425;DHT22;17139;52.140;11.636;2022-08-01T03:41:46;19.50;54.30
9425;DHT22;17139;52.140;11.636;2022-08-01T03:44:17;19.50;54.40
9425;DHT22;17139;52.140;11.636;2022-08-01T03:46:48;19.40;54.40
9425;DHT22;17139;52.140;11.636;2022-08-01T03:49:19;19.40;54.70
9425;DHT22;17139;52.140;11.636;2022-08-01T03:51:49;19.40;54.80
9425;DHT22;17139;52.140;11.636;2022-08-01T03:54:21;19.40;54.90
9425;DHT22;17139;52.140;11.636;2022-08-01T03:56:49;19.40;55.10
9425;DHT22;17139;52.140;11.636;2022-08-01T03:59:17;19.40;55.10
9425;DHT22;17139;52.140;11.636;2022-08-01T04:01:46;19.40;55.20
9425;DHT22;17139;52.140;11.636;2022-08-01T04:04:14;19.40;55.10
9425;DHT22;17139;52.140;11.636;2022-08-01T04:06:42;19.40;55.10
9425;DHT22;17139;52.140;11.636;2022-08-01T04:09:11;20.40;58.70
9425;DHT22;17139;52.140;11.636;2022-08-01T04:11:39;20.10;56.10
9425;DHT22;17139;52.140;11.636;2022-08-01T04:14:06;19.90;56.00
9425;DHT22;17139;52.140;11.636;2022-08-01T04:16:33;19.70;55.80
9425;DHT22;17139;52.140;11.636;2022-08-01T04:19:02;19.60;55.80
9425;DHT22;17139;52.140;11.636;2022-08-01T04:21:34;19.50;55.80
9425;DHT22;17139;52.140;11.636;2022-08-01T04:24:06;19.50;56.00
9425;DHT22;17139;52.140;11.636;2022-08-01T04:26:35;19.50;56.00
9425;DHT22;17139;52.140;11.636;2022-08-01T04:29:03;19.50;56.00
9425;DHT22;17139;52.140;11.636;2022-08-01T04:31:32;20.20;58.50
9425;DHT22;17139;52.140;11.636;2022-08-01T04:34:03;20.10;56.40
9425;DHT22;17139;52.140;11.636;2022-08-01T04:36:34;19.90;56.20
9425;DHT22;17139;52.140;11.636;2022-08-01T04:39:03;20.50;58.30
9425;DHT22;17139;52.140;11.636;2022-08-01T04:41:32;20.30;56.40
9425;DHT22;17139;52.140;11.636;2022-08-01T04:44:01;20.10;56.30
9425;DHT22;17139;52.140;11.636;2022-08-01T04:46:30;20.00;56.30
9425;DHT22;17139;52.140;11.636;2022-08-01T04:48:59;19.90;56.20
9425;DHT22;17139;52.140;11.636;2022-08-01T04:51:28;19.90;56.30
9425;DHT22;17139;52.140;11.636;2022-08-01T04:53:55;19.90;56.10
9425;DHT22;17139;52.140;11.636;2022-08-01T04:56:23;20.00;56.20
9425;DHT22;17139;52.140;11.636;2022-08-01T04:58:51;19.90;55.80
9425;DHT22;17139;52.140;11.636;2022-08-01T05:01:38;20.00;57.10
9425;DHT22;17139;52.140;11.636;2022-08-01T05:04:05;19.90;56.20
9425;DHT22;17139;52.140;11.636;2022-08-01T05:06:34;19.90;56.20
9425;DHT22;17139;52.140;11.636;2022-08-01T05:09:01;20.30;57.90
9425;DHT22;17139;52.140;11.636;2022-08-01T05:11:28;20.20;56.40
9425;DHT22;17139;52.140;11.636;2022-08-01T05:13:56;20.20;56.30
9425;DHT22;17139;52.140;11.636;2022-08-01T05:16:23;20.10;56.30
9425;DHT22;17139;52.140;11.636;2022-08-01T05:18:50;20.10;56.20
9425;DHT22;17139;52.140;11.636;2022-08-01T05:21:17;20.10;56.10
9425;DHT22;17139;52.140;11.636;2022-08-01T05:23:46;20.10;55.80
9425;DHT22;17139;52.140;11.636;2022-08-01T05:26:14;20.00;56.00
9425;DHT22;17139;52.140;11.636;2022-08-01T05:28:41;19.90;56.00
9425;DHT22;17139;52.140;11.636;2022-08-01T05:31:09;19.80;56.10
9425;DHT22;17139;52.140;11.636;2022-08-01T05:33:36;20.70;59.20
9425;DHT22;17139;52.140;11.636;2022-08-01T05:36:03;20.30;57.10
9425;DHT22;17139;52.140;11.636;2022-08-01T05:38:31;20.10;57.10
9425;DHT22;17139;52.140;11.636;2022-08-01T05:40:59;20.70;59.70
9425;DHT22;17139;52.140;11.636;2022-08-01T05:43:26;20.40;58.00
9425;DHT22;17139;52.140;11.636;2022-08-01T05:45:53;20.10;57.70
9425;DHT22;17139;52.140;11.636;2022-08-01T05:48:21;19.90;57.80
9425;DHT22;17139;52.140;11.636;2022-08-01T05:50:48;19.80;57.30
9425;DHT22;17139;52.140;11.636;2022-08-01T05:53:15;19.70;57.50
9425;DHT22;17139;52.140;11.636;2022-08-01T05:55:42;19.70;57.30
9425;DHT22;17139;52.140;11.636;2022-08-01T05:58:11;19.70;57.40
9425;DHT22;17139;52.140;11.636;2022-08-01T06:00:38;19.80;57.70
9425;DHT22;17139;52.140;11.636;2022-08-01T06:03:05;20.20;58.70
9425;DHT22;17139;52.140;11.636;2022-08-01T06:05:32;20.20;57.20
9425;DHT22;17139;52.140;11.636;2022-08-01T06:07:59;20.20;57.00
9425;DHT22;17139;52.140;11.636;2022-08-01T06:10:27;20.30;56.90
9425;DHT22;17139;52.140;11.636;2022-08-01T06:12:54;20.30;56.80
9425;DHT22;17139;52.140;11.636;2022-08-01T06:15:22;20.30;56.70
9425;DHT22;17139;52.140;11.636;2022-08-01T06:17:49;20.20;56.60
9425;DHT22;17139;52.140;11.636;2022-08-01T06:20:17;20.20;56.90
9425;DHT22;17139;52.140;11.636;2022-08-01T06:22:44;20.10;56.90
9425;DHT22;17139;52.140;11.636;2022-08-01T06:25:11;20.10;56.90
9425;DHT22;17139;52.140;11.636;2022-08-01T06:27:38;20.20;57.00
9425;DHT22;17139;52.140;11.636;2022-08-01T06:30:06;20.20;56.80
9425;DHT22;17139;52.140;11.636;2022-08-01T06:32:36;20.40;56.70
9425;DHT22;17139;52.140;11.636;2022-08-01T06:35:06;21.40;57.60
9425;DHT22;17139;52.140;11.636;2022-08-01T06:37:34;21.20;56.60
9425;DHT22;17139;52.140;11.636;2022-08-01T06:40:02;20.90;56.40
9425;DHT22;17139;52.140;11.636;2022-08-01T06:42:29;20.90;56.40
9425;DHT22;17139;52.140;11.636;2022-08-01T06:44:57;20.90;56.40
9425;DHT22;17139;52.140;11.636;2022-08-01T06:47:24;21.00;56.50
9425;DHT22;17139;52.140;11.636;2022-08-01T06:49:53;21.20;56.20
9425;DHT22;17139;52.140;11.636;2022-08-01T06:52:20;21.20;55.80
9425;DHT22;17139;52.140;11.636;2022-08-01T06:54:47;21.30;55.80
9425;DHT22;17139;52.140;11.636;2022-08-01T06:57:14;21.20;55.70
9425;DHT22;17139;52.140;11.636;2022-08-01T06:59:41;21.20;55.80
9425;DHT22;17139;52.140;11.636;2022-08-01T07:02:09;21.30;55.90
9425;DHT22;17139;52.140;11.636;2022-08-01T07:04:36;21.90;56.00
9425;DHT22;17139;52.140;11.636;2022-08-01T07:07:04;21.70;55.30
9425;DHT22;17139;52.140;11.636;2022-08-01T07:09:32;21.60;55.50
9425;DHT22;17139;52.140;11.636;2022-08-01T07:12:00;22.10;55.90
9425;DHT22;17139;52.140;11.636;2022-08-01T07:14:27;21.90;55.30
9425;DHT22;17139;52.140;11.636;2022-08-01T07:16:55;21.60;55.50
9425;DHT22;17139;52.140;11.636;2022-08-01T07:19:22;21.50;55.60
9425;DHT22;17139;52.140;11.636;2022-08-01T07:21:49;21.40;55.70
9425;DHT22;17139;52.140;11.636;2022-08-01T07:24:18;21.40;55.70
9425;DHT22;17139;52.140;11.636;2022-08-01T07:26:47;21.40;55.60
9425;DHT22;17139;52.140;11.636;2022-08-01T07:29:14;21.50;55.60
9425;DHT22;17139;52.140;11.636;2022-08-01T07:31:42;21.60;55.70
9425;DHT22;17139;52.140;11.636;2022-08-01T07:34:09;21.60;56.10
9425;DHT22;17139;52.140;11.636;2022-08-01T07:36:36;21.90;55.30
9425;DHT22;17139;52.140;11.636;2022-08-01T07:39:03;21.90;55.10
9425;DHT22;17139;52.140;11.636;2022-08-01T07:41:32;22.00;54.90
9425;DHT22;17139;52.140;11.636;2022-08-01T07:43:59;23.00;53.60
9425;DHT22;17139;52.140;11.636;2022-08-01T07:46:26;22.60;53.60
9425;DHT22;17139;52.140;11.636;2022-08-01T07:48:55;22.20;54.10
9425;DHT22;17139;52.140;11.636;2022-08-01T07:51:23;22.00;54.60
9425;DHT22;17139;52.140;11.636;2022-08-01T07:53:50;21.90;54.90
9425;DHT22;17139;52.140;11.636;2022-08-01T07:56:17;21.70;55.30
9425;DHT22;17139;52.140;11.636;2022-08-01T07:58:45;22.30;55.80
9425;DHT22;17139;52.140;11.636;2022-08-01T08:01:13;21.80;55.50
9425;DHT22;17139;52.140;11.636;2022-08-01T08:03:41;21.80;57.10
9425;DHT22;17139;52.140;11.636;2022-08-01T08:06:08;21.50;56.60
9425;DHT22;17139;52.140;11.636;2022-08-01T08:08:35;21.30;56.80
9425;DHT22;17139;52.140;11.636;2022-08-01T08:11:02;21.70;58.20
9425;DHT22;17139;52.140;11.636;2022-08-01T08:13:29;21.60;57.00
9425;DHT22;17139;52.140;11.636;2022-08-01T08:15:58;21.70;57.00
9425;DHT22;17139;52.140;11.636;2022-08-01T08:18:25;21.80;57.00
9425;DHT22;17139;52.140;11.636;2022-08-01T08:20:53;21.90;56.70
9425;DHT22;17139;52.140;11.636;2022-08-01T08:23:20;22.00;56.40
9425;DHT22;17139;52.140;11.636;2022-08-01T08:26:01;22.90;56.60
9425;DHT22;17139;52.140;11.636;2022-08-01T08:28:28;22.60;55.80
9425;DHT22;17139;52.140;11.636;2022-08-01T08:30:55;22.50;55.80
9425;DHT22;17139;52.140;11.636;2022-08-01T08:33:24;22.30;55.90
9425;DHT22;17139;52.140;11.636;2022-08-01T08:35:51;22.20;56.10
9425;DHT22;17139;52.140;11.636;2022-08-01T08:38:19;22.50;56.70
9425;DHT22;17139;52.140;11.636;2022-08-01T08:40:47;22.00;56.30
9425;DHT22;17139;52.140;11.636;2022-08-01T08:43:15;21.70;56.50
9425;DHT22;17139;52.140;11.636;2022-08-01T08:45:44;21.30;57.40
9425;DHT22;17139;52.140;11.636;2022-08-01T08:48:12;20.90;57.00
9425;DHT22;17139;52.140;11.636;2022-08-01T08:50:41;20.60;57.30
9425;DHT22;17139;52.140;11.636;2022-08-01T08:53:10;20.50;57.60
9425;DHT22;17139;52.140;11.636;2022-08-01T08:55:38;20.50;57.70
9425;DHT22;17139;52.140;11.636;2022-08-01T08:58:05;21.00;57.90
9425;DHT22;17139;52.140;11.636;2022-08-01T09:00:32;21.80;57.10
9425;DHT22;17139;52.140;11.636;2022-08-01T09:03:01;21.50;56.60
9425;DHT22;17139;52.140;11.636;2022-08-01T09:05:28;21.30;56.60
9425;DHT22;17139;52.140;11.636;2022-08-01T09:07:57;22.20;56.00
9425;DHT22;17139;52.140;11.636;2022-08-01T09:10:24;22.10;55.60
9425;DHT22;17139;52.140;11.636;2022-08-01T09:13:06;22.00;55.70
9425;DHT22;17139;52.140;11.636;2022-08-01T09:15:40;22.20;55.60
9425;DHT22;17139;52.140;11.636;2022-08-01T09:18:08;22.30;55.40
9425;DHT22;17139;52.140;11.636;2022-08-01T09:20:35;22.30;55.30
9425;DHT22;17139;52.140;11.636;2022-08-01T09:23:04;22.40;55.30
9425;DHT22;17139;52.140;11.636;2022-08-01T09:25:50;22.50;55.10
9425;DHT22;17139;52.140;11.636;2022-08-01T09:28:18;22.50;54.80
9425;DHT22;17139;52.140;11.636;2022-08-01T09:30:55;22.60;54.90
9425;DHT22;17139;52.140;11.636;2022-08-01T09:33:22;22.60;54.60
9425;DHT22;17139;52.140;11.636;2022-08-01T09:35:54;22.90;54.10
9425;DHT22;17139;52.140;11.636;2022-08-01T09:38:24;23.00;53.80
9425;DHT22;17139;52.140;11.636;2022-08-01T09:40:54;23.10;53.80
9425;DHT22;17139;52.140;11.636;2022-08-01T09:43:23;23.10;53.50
9425;DHT22;17139;52.140;11.636;2022-08-01T09:45:51;23.20;53.50
9425;DHT22;17139;52.140;11.636;2022-08-01T09:48:19;23.30;53.30
9425;DHT22;17139;52.140;11.636;2022-08-01T09:50:48;23.30;53.50
9425;DHT22;17139;52.140;11.636;2022-08-01T09:53:16;23.30;53.50
9425;DHT22;17139;52.140;11.636;2022-08-01T09:55:45;23.30;53.50
9425;DHT22;17139;52.140;11.636;2022-08-01T09:58:13;23.30;53.20
9425;DHT22;17139;52.140;11.636;2022-08-01T10:00:40;23.20;53.10
9425;DHT22;17139;52.140;11.636;2022-08-01T10:03:19;23.10;53.40
9425;DHT22;17139;52.140;11.636;2022-08-01T10:05:47;23.10;53.20
9425;DHT22;17139;52.140;11.636;2022-08-01T10:08:14;23.00;53.00
9425;DHT22;17139;52.140;11.636;2022-08-01T10:10:44;23.80;50.90
9425;DHT22;17139;52.140;11.636;2022-08-01T10:13:31;23.50;51.50
9425;DHT22;17139;52.140;11.636;2022-08-01T10:16:00;23.10;52.10
9425;DHT22;17139;52.140;11.636;2022-08-01T10:18:29;23.00;52.70
9425;DHT22;17139;52.140;11.636;2022-08-01T10:20:58;23.00;52.80
9425;DHT22;17139;52.140;11.636;2022-08-01T10:23:26;23.00;52.80
9425;DHT22;17139;52.140;11.636;2022-08-01T10:25:56;23.80;50.80
9425;DHT22;17139;52.140;11.636;2022-08-01T10:28:25;24.20;49.90
9425;DHT22;17139;52.140;11.636;2022-08-01T10:30:54;23.90;51.00
9425;DHT22;17139;52.140;11.636;2022-08-01T10:33:22;24.10;50.70
9425;DHT22;17139;52.140;11.636;2022-08-01T10:35:50;24.00;51.10
9425;DHT22;17139;52.140;11.636;2022-08-01T10:38:17;24.00;51.40
9425;DHT22;17139;52.140;11.636;2022-08-01T10:40:45;24.20;51.50
9425;DHT22;17139;52.140;11.636;2022-08-01T10:43:13;24.20;51.40
9425;DHT22;17139;52.140;11.636;2022-08-01T10:45:43;24.30;51.50
9425;DHT22;17139;52.140;11.636;2022-08-01T10:48:16;24.40;51.40
9425;DHT22;17139;52.140;11.636;2022-08-01T10:50:48;25.00;49.20
9425;DHT22;17139;52.140;11.636;2022-08-01T10:53:17;25.10;49.00
9425;DHT22;17139;52.140;11.636;2022-08-01T10:55:47;24.80;49.90
9425;DHT22;17139;52.140;11.636;2022-08-01T10:58:20;25.30;48.60
9425;DHT22;17139;52.140;11.636;2022-08-01T11:00:47;25.00;49.70
9425;DHT22;17139;52.140;11.636;2022-08-01T11:03:15;24.60;50.10
9425;DHT22;17139;52.140;11.636;2022-08-01T11:05:42;24.20;50.40
9425;DHT22;17139;52.140;11.636;2022-08-01T11:08:21;24.00;50.90
9425;DHT22;17139;52.140;11.636;2022-08-01T11:10:48;23.70;51.10
9425;DHT22;17139;52.140;11.636;2022-08-01T11:16:30;24.10;49.90
9425;DHT22;17139;52.140;11.636;2022-08-01T11:18:58;23.80;50.80
9425;DHT22;17139;52.140;11.636;2022-08-01T11:21:58;23.60;51.10
9425;DHT22;17139;52.140;11.636;2022-08-01T11:24:55;24.20;49.50
9425;DHT22;17139;52.140;11.636;2022-08-01T11:27:29;24.70;48.60
9425;DHT22;17139;52.140;11.636;2022-08-01T11:30:22;24.20;49.70
9425;DHT22;17139;52.140;11.636;2022-08-01T11:32:53;24.20;50.40
9425;DHT22;17139;52.140;11.636;2022-08-01T11:35:21;24.20;50.70
9425;DHT22;17139;52.140;11.636;2022-08-01T11:37:49;24.40;50.40
9425;DHT22;17139;52.140;11.636;2022-08-01T11:40:19;24.40;50.60
9425;DHT22;17139;52.140;11.636;2022-08-01T11:42:47;24.40;50.60
9425;DHT22;17139;52.140;11.636;2022-08-01T11:45:14;24.40;50.40
9425;DHT22;17139;52.140;11.636;2022-08-01T11:47:46;24.50;50.70
9425;DHT22;17139;52.140;11.636;2022-08-01T11:50:32;24.60;50.50
9425;DHT22;17139;52.140;11.636;2022-08-01T11:52:59;24.80;50.40
9425;DHT22;17139;52.140;11.636;2022-08-01T11:55:27;24.80;50.40
9425;DHT22;17139;52.140;11.636;2022-08-01T11:58:00;24.90;50.10
9425;DHT22;17139;52.140;11.636;2022-08-01T12:00:28;25.00;50.00
9425;DHT22;17139;52.140;11.636;2022-08-01T12:02:57;25.00;50.10
9425;DHT22;17139;52.140;11.636;2022-08-01T12:05:25;25.00;49.90
9425;DHT22;17139;52.140;11.636;2022-08-01T12:07:55;25.00;49.90
9425;DHT22;17139;52.140;11.636;2022-08-01T12:10:25;25.10;49.50
9425;DHT22;17139;52.140;11.636;2022-08-01T12:12:53;25.10;49.80
9425;DHT22;17139;52.140;11.636;2022-08-01T12:15:22;25.10;50.10
9425;DHT22;17139;52.140;11.636;2022-08-01T12:17:53;25.00;50.00
9425;DHT22;17139;52.140;11.636;2022-08-01T12:20:22;25.50;48.80
9425;DHT22;17139;52.140;11.636;2022-08-01T12:22:54;25.30;49.30
9425;DHT22;17139;52.140;11.636;2022-08-01T12:25:21;25.10;49.50
9425;DHT22;17139;52.140;11.636;2022-08-01T12:27:49;25.40;48.70
9425;DHT22;17139;52.140;11.636;2022-08-01T12:30:18;25.10;49.30
9425;DHT22;17139;52.140;11.636;2022-08-01T12:32:48;25.00;49.90
9425;DHT22;17139;52.140;11.636;2022-08-01T12:35:17;25.20;48.80
9425;DHT22;17139;52.140;11.636;2022-08-01T12:37:46;24.90;49.30
9425;DHT22;17139;52.140;11.636;2022-08-01T12:40:17;24.60;49.80
9425;DHT22;17139;52.140;11.636;2022-08-01T12:42:45;24.50;50.00
9425;DHT22;17139;52.140;11.636;2022-08-01T12:45:15;24.40;50.30
9425;DHT22;17139;52.140;11.636;2022-08-01T12:47:42;24.40;50.40
9425;DHT22;17139;52.140;11.636;2022-08-01T12:50:12;24.40;50.30
9425;DHT22;17139;52.140;11.636;2022-08-01T12:52:39;24.40;50.30
9425;DHT22;17139;52.140;11.636;2022-08-01T12:55:12;25.00;48.30
9425;DHT22;17139;52.140;11.636;2022-08-01T12:57:43;24.90;49.00
9425;DHT22;17139;52.140;11.636;2022-08-01T13:00:16;24.90;49.30
9425;DHT22;17139;52.140;11.636;2022-08-01T13:02:44;25.40;47.00
9425;DHT22;17139;52.140;11.636;2022-08-01T13:05:12;25.20;48.30
9425;DHT22;17139;52.140;11.636;2022-08-01T13:07:47;25.20;48.90
9425;DHT22;17139;52.140;11.636;2022-08-01T13:10:23;25.30;48.70
9425;DHT22;17139;52.140;11.636;2022-08-01T13:12:54;25.20;49.00
9425;DHT22;17139;52.140;11.636;2022-08-01T13:15:29;25.30;48.90
9425;DHT22;17139;52.140;11.636;2022-08-01T13:17:59;25.20;49.00
9425;DHT22;17139;52.140;11.636;2022-08-01T13:20:30;25.10;48.90
9425;DHT22;17139;52.140;11.636;2022-08-01T13:23:11;25.70;46.60
9425;DHT22;17139;52.140;11.636;2022-08-01T13:25:49;25.40;47.60
9425;DHT22;17139;52.140;11.636;2022-08-01T13:28:22;25.30;48.30
9425;DHT22;17139;52.140;11.636;2022-08-01T13:30:54;26.00;46.00
9425;DHT22;17139;52.140;11.636;2022-08-01T13:33:21;25.80;47.30
9425;DHT22;17139;52.140;11.636;2022-08-01T13:35:50;25.80;47.60
9425;DHT22;17139;52.140;11.636;2022-08-01T13:38:17;25.80;47.70
9425;DHT22;17139;52.140;11.636;2022-08-01T13:40:44;25.80;47.60
9425;DHT22;17139;52.140;11.636;2022-08-01T13:43:11;25.60;47.30
9425;DHT22;17139;52.140;11.636;2022-08-01T13:45:40;25.40;47.60
9425;DHT22;17139;52.140;11.636;2022-08-01T13:48:07;25.40;47.90
9425;DHT22;17139;52.140;11.636;2022-08-01T13:50:34;25.80;45.80
9425;DHT22;17139;52.140;11.636;2022-08-01T13:53:01;25.80;46.90
9425;DHT22;17139;52.140;11.636;2022-08-01T13:55:28;25.70;47.20
9425;DHT22;17139;52.140;11.636;2022-08-01T13:57:55;25.50;47.30
9425;DHT22;17139;52.140;11.636;2022-08-01T14:00:22;25.40;47.40
9425;DHT22;17139;52.140;11.636;2022-08-01T14:02:50;25.40;47.40
9425;DHT22;17139;52.140;11.636;2022-08-01T14:05:17;25.40;47.50
9425;DHT22;17139;52.140;11.636;2022-08-01T14:07:44;25.30;47.50
9425;DHT22;17139;52.140;11.636;2022-08-01T14:10:12;25.30;47.70
9425;DHT22;17139;52.140;11.636;2022-08-01T14:12:39;25.30;47.80
9425;DHT22;17139;52.140;11.636;2022-08-01T14:15:07;25.20;47.60
9425;DHT22;17139;52.140;11.636;2022-08-01T14:17:34;25.10;47.80
9425;DHT22;17139;52.140;11.636;2022-08-01T14:20:04;25.90;45.10
9425;DHT22;17139;52.140;11.636;2022-08-01T14:22:31;25.70;46.30
9425;DHT22;17139;52.140;11.636;2022-08-01T14:24:58;25.50;46.70
9425;DHT22;17139;52.140;11.636;2022-08-01T14:27:26;26.20;44.30
9425;DHT22;17139;52.140;11.636;2022-08-01T14:29:55;25.80;45.80
9425;DHT22;17139;52.140;11.636;2022-08-01T14:32:22;25.50;46.30
9425;DHT22;17139;52.140;11.636;2022-08-01T14:34:49;25.30;46.60
9425;DHT22;17139;52.140;11.636;2022-08-01T14:37:18;25.10;46.70
9425;DHT22;17139;52.140;11.636;2022-08-01T14:39:45;25.00;46.90
9425;DHT22;17139;52.140;11.636;2022-08-01T14:42:12;25.00;47.00
9425;DHT22;17139;52.140;11.636;2022-08-01T14:44:42;25.00;46.70
9425;DHT22;17139;52.140;11.636;2022-08-01T14:47:09;24.90;46.80
9425;DHT22;17139;52.140;11.636;2022-08-01T14:49:36;25.60;43.80
9425;DHT22;17139;52.140;11.636;2022-08-01T14:52:03;25.40;45.30
9425;DHT22;17139;52.140;11.636;2022-08-01T14:54:32;25.20;45.50
9425;DHT22;17139;52.140;11.636;2022-08-01T14:56:59;25.80;43.50
9425;DHT22;17139;52.140;11.636;2022-08-01T14:59:26;25.50;45.00
9425;DHT22;17139;52.140;11.636;2022-08-01T15:01:53;25.40;45.60
9425;DHT22;17139;52.140;11.636;2022-08-01T15:04:20;25.40;45.60
9425;DHT22;17139;52.140;11.636;2022-08-01T15:06:48;25.30;45.50
9425;DHT22;17139;52.140;11.636;2022-08-01T15:09:15;25.20;45.80
9425;DHT22;17139;52.140;11.636;2022-08-01T15:11:43;25.20;45.70
9425;DHT22;17139;52.140;11.636;2022-08-01T15:14:12;25.30;45.90
9425;DHT22;17139;52.140;11.636;2022-08-01T15:16:56;25.50;44.60
9425;DHT22;17139;52.140;11.636;2022-08-01T15:19:24;25.50;45.60
9425;DHT22;17139;52.140;11.636;2022-08-01T15:21:51;25.50;45.60
9425;DHT22;17139;52.140;11.636;2022-08-01T15:24:18;25.90;44.20
9425;DHT22;17139;52.140;11.636;2022-08-01T15:26:46;25.80;45.10
9425;DHT22;17139;52.140;11.636;2022-08-01T15:29:13;25.60;45.10
9425;DHT22;17139;52.140;11.636;2022-08-01T15:31:41;25.50;45.60
9425;DHT22;17139;52.140;11.636;2022-08-01T15:34:08;25.30;45.50
9425;DHT22;17139;52.140;11.636;2022-08-01T15:36:35;25.30;45.50
9425;DHT22;17139;52.140;11.636;2022-08-01T15:39:02;25.20;45.50
9425;DHT22;17139;52.140;11.636;2022-08-01T15:41:29;25.20;45.60
9425;DHT22;17139;52.140;11.636;2022-08-01T15:43:57;25.10;45.90
9425;DHT22;17139;52.140;11.636;2022-08-01T15:46:24;25.80;43.60
9425;DHT22;17139;52.140;11.636;2022-08-01T15:48:51;25.50;44.70